Time;durP1;ratioP1;P1;durP2;ratioP2;P2;SDS_P1;SDS_P2;PMS_P1;PMS_P2;Temp;Humidity;BMP_temperature;BMP_pressure;BME280_temperature;BME280_humidity;BME280_pressure;Samples;Min_cycle;Max_cycle;Signal;HPM_P1;HPM_P2
2023/06/23 00:01:18;;;;;;;11.50;10.50;;;;;;;19.30;88.75;95242.66;5117837;28;20192;-65
2023/06/23 00:03:46;;;;;;;11.13;10.02;;;;;;;19.30;88.72;95242.66;5118556;28;20635;-65
2023/06/23 00:06:14;;;;;;;12.95;11.73;;;;;;;19.27;88.53;95246.25;5118599;28;20199;-65
2023/06/23 00:08:42;;;;;;;12.07;10.88;;;;;;;19.20;88.25;95243.47;5118246;28;20632;-65
2023/06/23 00:11:09;;;;;;;12.63;11.40;;;;;;;19.15;88.41;95241.13;5117845;28;20253;-65
2023/06/23 00:13:38;;;;;;;11.98;10.88;;;;;;;19.14;88.55;95236.72;5118502;27;20196;-65
2023/06/23 00:16:08;;;;;;;13.02;11.55;;;;;;;19.12;88.64;95239.91;5117354;28;20194;-65
2023/06/23 00:18:39;;;;;;;11.32;10.23;;;;;;;19.13;89.19;95243.50;5117661;28;20202;-65
2023/06/23 00:21:08;;;;;;;11.85;10.32;;;;;;;19.16;88.83;95240.69;5116373;28;20200;-65
2023/06/23 00:23:37;;;;;;;12.23;10.70;;;;;;;19.14;88.77;95243.13;5118404;28;20518;-65
2023/06/23 00:26:08;;;;;;;11.65;10.45;;;;;;;19.13;89.62;95237.91;5117178;28;20187;-65
2023/06/23 00:28:38;;;;;;;11.45;10.43;;;;;;;19.15;89.60;95241.13;5117447;28;20195;-65
2023/06/23 00:31:06;;;;;;;12.63;11.27;;;;;;;19.09;88.98;95229.53;5117551;28;20282;-65
2023/06/23 00:33:34;;;;;;;13.60;10.82;;;;;;;19.03;89.03;95239.56;5117094;28;20286;-65
2023/06/23 00:36:02;;;;;;;12.02;10.68;;;;;;;18.96;88.46;95237.56;5118046;28;20192;-65
2023/06/23 00:38:30;;;;;;;12.05;10.95;;;;;;;18.91;88.42;95234.38;5118251;28;20188;-65
2023/06/23 00:41:01;;;;;;;13.52;12.30;;;;;;;18.86;88.13;95232.00;5117058;28;20192;-65
2023/06/23 00:43:31;;;;;;;12.95;11.57;;;;;;;18.83;88.16;95230.81;5117829;28;20239;-65
2023/06/23 00:46:04;;;;;;;14.40;12.65;;;;;;;18.85;88.52;95236.00;5117962;28;20187;-65
2023/06/23 00:48:32;;;;;;;14.73;11.80;;;;;;;18.87;88.87;95230.81;5116933;28;20199;-65
2023/06/23 00:51:00;;;;;;;14.13;12.48;;;;;;;18.86;88.68;95230.00;5116898;28;20207;-65
2023/06/23 00:53:28;;;;;;;13.07;11.13;;;;;;;18.87;89.18;95223.22;5116842;28;20195;-65
2023/06/23 00:55:59;;;;;;;13.15;10.90;;;;;;;18.89;89.07;95226.41;5116679;28;20196;-65
2023/06/23 00:58:34;;;;;;;12.90;11.50;;;;;;;18.87;88.59;95233.59;5117412;28;20202;-65
2023/06/23 01:01:03;;;;;;;12.85;11.55;;;;;;;18.86;88.76;95232.81;5116464;28;20213;-66
2023/06/23 01:03:30;;;;;;;13.15;11.25;;;;;;;18.86;88.99;95235.59;5117165;28;20219;-65
2023/06/23 01:06:03;;;;;;;12.07;10.88;;;;;;;18.88;89.20;95241.59;5117210;28;20608;-65
2023/06/23 01:08:35;;;;;;;12.65;11.20;;;;;;;18.86;89.01;95241.19;5117589;28;20196;-66
2023/06/23 01:11:06;;;;;;;13.60;12.18;;;;;;;18.83;89.02;95241.19;5116387;28;20219;-66
2023/06/23 01:13:38;;;;;;;13.02;11.65;;;;;;;18.81;89.21;95236.00;5117206;28;20196;-66
2023/06/23 01:16:09;;;;;;;11.80;10.50;;;;;;;18.81;89.24;95243.56;5117302;28;20180;-66
2023/06/23 01:18:46;;;;;;;13.05;11.57;;;;;;;18.79;89.07;95240.41;5117335;28;20184;-66
2023/06/23 01:21:19;;;;;;;13.00;11.63;;;;;;;18.71;88.53;95236.81;5117243;28;20307;-66
2023/06/23 01:24:02;;;;;;;12.00;10.90;;;;;;;18.69;88.80;95231.59;5117212;28;20180;-66
2023/06/23 01:26:43;;;;;;;11.88;10.75;;;;;;;18.70;88.89;95229.59;5117194;28;20193;-66
2023/06/23 01:29:20;;;;;;;11.02;9.68;;;;;;;18.72;88.87;95232.81;5117012;28;20207;-66
2023/06/23 01:31:52;;;;;;;13.13;10.75;;;;;;;18.72;88.95;95230.81;5116093;28;20195;-66
2023/06/23 01:34:25;;;;;;;12.23;10.95;;;;;;;18.72;88.80;95224.44;5116917;28;20202;-66
2023/06/23 01:36:58;;;;;;;12.63;11.27;;;;;;;18.69;88.78;95228.00;5116643;28;20207;-65
2023/06/23 01:39:30;;;;;;;12.88;11.40;;;;;;;18.69;88.94;95228.81;5116495;28;20184;-65
2023/06/23 01:42:01;;;;;;;12.20;11.00;;;;;;;18.69;89.23;95223.22;5117029;28;20282;-65
2023/06/23 01:44:32;;;;;;;15.02;11.05;;;;;;;18.69;89.58;95219.63;5115531;28;20243;-65
2023/06/23 01:47:02;;;;;;;11.73;10.57;;;;;;;18.71;89.79;95228.44;5116701;28;20210;-65
2023/06/23 01:49:36;;;;;;;12.32;10.93;;;;;;;18.68;89.80;95226.41;5115669;28;20211;-65
2023/06/23 01:52:06;;;;;;;12.40;10.93;;;;;;;18.62;89.06;95223.22;5116213;28;20195;-65
2023/06/23 01:54:38;;;;;;;12.18;10.90;;;;;;;18.55;88.57;95228.81;5116543;28;20176;-65
2023/06/23 01:57:06;;;;;;;14.57;11.80;;;;;;;18.51;88.64;95228.03;5115692;28;20203;-65
2023/06/23 01:59:38;;;;;;;12.15;11.02;;;;;;;18.49;88.73;95233.22;5115541;28;20199;-65
2023/06/23 02:02:08;;;;;;;12.00;10.80;;;;;;;18.49;88.29;95242.41;5115467;28;20622;-65
2023/06/23 02:04:41;;;;;;;13.07;11.73;;;;;;;18.43;88.49;95240.41;5116078;28;20198;-65
2023/06/23 02:07:11;;;;;;;12.80;11.40;;;;;;;18.40;89.16;95244.78;5116340;28;20200;-65
2023/06/23 02:09:40;;;;;;;12.55;11.35;;;;;;;18.40;89.61;95238.41;5116165;28;20239;-65
2023/06/23 02:12:10;;;;;;;12.57;11.45;;;;;;;18.41;90.20;95238.03;5115068;28;20196;-65
2023/06/23 02:14:44;;;;;;;12.50;11.32;;;;;;;18.45;90.71;95240.81;5116226;28;20252;-65
2023/06/23 02:17:13;;;;;;;14.35;12.52;;;;;;;18.48;90.32;95238.03;5115266;28;20191;-65
2023/06/23 02:19:44;;;;;;;14.13;12.60;;;;;;;18.50;90.40;95232.03;5115055;28;20199;-65
2023/06/23 02:22:23;;;;;;;13.63;12.30;;;;;;;18.51;90.85;95237.19;5115671;28;20202;-65
2023/06/23 02:24:52;;;;;;;13.68;12.43;;;;;;;18.51;90.80;95228.81;5115318;28;20195;-66
2023/06/23 02:27:21;;;;;;;13.52;12.32;;;;;;;18.53;90.63;95236.81;5115898;28;20211;-65
2023/06/23 02:29:51;;;;;;;13.18;11.85;;;;;;;18.54;90.49;95238.41;5114692;28;20559;-65
2023/06/23 02:32:18;;;;;;;12.50;11.30;;;;;;;18.47;89.71;95236.41;5115196;28;20195;-65
2023/06/23 02:34:47;;;;;;;13.25;11.95;;;;;;;18.39;89.39;95234.81;5115897;28;20203;-65
2023/06/23 02:37:23;;;;;;;12.48;11.38;;;;;;;18.36;89.37;95234.81;5114690;28;20214;-65
2023/06/23 02:39:54;;;;;;;13.13;11.55;;;;;;;18.37;89.41;95244.78;5115511;28;20191;-65
2023/06/23 02:42:22;;;;;;;12.77;11.57;;;;;;;18.32;89.32;95250.78;5114527;28;20203;-65
2023/06/23 02:44:56;;;;;;;12.57;11.18;;;;;;;18.30;89.65;95245.59;5114415;28;20191;-65
2023/06/23 02:47:25;;;;;;;13.20;11.85;;;;;;;18.31;89.66;95238.03;5114857;28;20194;-65
2023/06/23 02:49:56;;;;;;;13.05;11.90;;;;;;;18.33;90.16;95242.00;5115651;28;20207;-65
2023/06/23 02:52:25;;;;;;;12.98;11.63;;;;;;;18.36;90.06;95234.81;5114778;28;20195;-65
2023/06/23 02:54:55;;;;;;;13.32;12.02;;;;;;;18.37;89.98;95236.41;5115687;28;20196;-65
2023/06/23 02:57:23;;;;;;;13.48;11.68;;;;;;;18.36;90.24;95229.22;5115652;28;20195;-65
2023/06/23 02:59:54;;;;;;;12.30;11.13;;;;;;;18.35;90.36;95234.03;5115453;28;20195;-64
2023/06/23 03:02:24;;;;;;;12.63;11.32;;;;;;;18.34;90.71;95229.66;5114338;28;20255;-64
2023/06/23 03:04:52;;;;;;;12.85;11.65;;;;;;;18.34;90.66;95221.28;5115671;28;20188;-64
2023/06/23 03:07:20;;;;;;;16.45;11.40;;;;;;;18.34;90.57;95218.47;5115266;28;20531;-64
2023/06/23 03:09:48;;;;;;;12.55;11.45;;;;;;;18.34;90.50;95215.69;5114269;28;20211;-64
2023/06/23 03:12:16;;;;;;;12.10;10.77;;;;;;;18.33;90.53;95222.44;5114770;28;20207;-64
2023/06/23 03:14:45;;;;;;;12.93;11.60;;;;;;;18.24;90.12;95217.28;5115294;28;20187;-64
2023/06/23 03:17:16;;;;;;;12.38;11.13;;;;;;;18.18;89.42;95220.84;5114321;28;20251;-64
2023/06/23 03:19:48;;;;;;;16.90;11.25;;;;;;;18.15;89.28;95235.59;5115423;28;20195;-64
2023/06/23 03:22:19;;;;;;;14.02;11.63;;;;;;;18.14;89.28;95226.44;5115719;28;20283;-64
2023/06/23 03:24:52;;;;;;;15.27;12.57;;;;;;;18.16;89.49;95228.84;5114662;28;20203;-64
2023/06/23 03:27:23;;;;;;;12.32;11.10;;;;;;;18.14;89.50;95228.44;5115062;28;20184;-64
2023/06/23 03:29:54;;;;;;;13.40;12.00;;;;;;;18.15;89.49;95230.81;5115308;28;20250;-64
2023/06/23 03:32:27;;;;;;;13.07;10.93;;;;;;;18.17;90.04;95230.44;5114153;28;20631;-65
2023/06/23 03:35:02;;;;;;;13.23;11.88;;;;;;;18.19;89.94;95233.63;5114406;28;20563;-65
2023/06/23 03:37:33;;;;;;;13.52;12.10;;;;;;;18.18;89.98;95230.03;5115317;28;20188;-65
2023/06/23 03:40:07;;;;;;;13.45;11.98;;;;;;;18.16;89.51;95229.66;5115214;28;20179;-65
2023/06/23 03:42:40;;;;;;;12.85;11.52;;;;;;;18.17;89.82;95222.84;5115053;28;20184;-65
2023/06/23 03:45:09;;;;;;;12.95;11.60;;;;;;;18.19;89.67;95230.81;5115328;28;20188;-65
2023/06/23 03:47:40;;;;;;;12.25;11.05;;;;;;;18.20;90.06;95236.03;5115139;28;20188;-65
2023/06/23 03:50:11;;;;;;;13.00;11.45;;;;;;;18.22;90.06;95241.19;5115510;28;20200;-70
2023/06/23 03:52:40;;;;;;;14.02;12.55;;;;;;;18.21;89.99;95234.81;5114743;28;20195;-69
2023/06/23 03:55:08;;;;;;;13.40;12.00;;;;;;;18.23;90.14;95238.03;5115332;28;20184;-70
2023/06/23 03:57:37;;;;;;;13.75;12.30;;;;;;;18.25;90.23;95237.63;5117930;28;20196;-69
2023/06/23 04:00:06;;;;;;;13.77;12.38;;;;;;;18.27;90.32;95238.81;5118840;28;20199;-73
2023/06/23 04:02:35;;;;;;;14.35;12.82;;;;;;;18.29;90.12;95244.78;5118045;28;20196;-71
2023/06/23 04:05:06;;;;;;;16.77;13.32;;;;;;;18.31;90.34;95247.19;5117937;28;20206;-71
2023/06/23 04:07:35;;;;;;;15.13;13.68;;;;;;;18.33;90.39;95246.78;5117220;28;20273;-69
2023/06/23 04:10:05;;;;;;;14.15;12.77;;;;;;;18.32;90.29;95243.19;5118237;28;20219;-70
2023/06/23 04:12:34;;;;;;;14.05;12.68;;;;;;;18.32;90.81;95251.56;5118598;28;20187;-70
2023/06/23 04:15:05;;;;;;;13.50;12.15;;;;;;;18.35;90.66;95258.38;5117670;28;20199;-70
2023/06/23 04:17:33;;;;;;;12.75;11.48;;;;;;;18.35;90.80;95259.16;5118313;28;20247;-70
2023/06/23 04:20:03;;;;;;;13.35;12.02;;;;;;;18.36;90.48;95252.38;5118256;28;20201;-70
2023/06/23 04:22:35;;;;;;;13.93;12.60;;;;;;;18.38;90.85;95254.78;5117128;28;20693;-70
2023/06/23 04:25:04;;;;;;;14.32;12.93;;;;;;;18.38;90.31;95252.78;5118290;28;20184;-69
2023/06/23 04:27:33;;;;;;;13.55;12.07;;;;;;;18.43;90.63;95254.38;5117271;28;20199;-68
2023/06/23 04:30:02;;;;;;;14.75;13.40;;;;;;;18.42;90.42;95263.94;5117073;28;20211;-68
2023/06/23 04:32:30;;;;;;;14.05;12.55;;;;;;;18.43;90.40;95263.53;5118051;28;20202;-68
2023/06/23 04:34:57;;;;;;;14.25;12.85;;;;;;;18.47;90.85;95257.94;5117841;28;20195;-68
2023/06/23 04:37:36;;;;;;;14.40;13.07;;;;;;;18.51;91.06;95258.75;5117065;28;20202;-68
2023/06/23 04:40:09;;;;;;;15.13;13.52;;;;;;;18.55;91.17;95258.75;5118003;28;20199;-68
2023/06/23 04:42:44;;;;;;;15.15;13.57;;;;;;;18.58;90.95;95255.16;5117604;28;20180;-68
2023/06/23 04:45:15;;;;;;;15.18;13.77;;;;;;;19.51;88.98;95252.16;5117683;28;20554;-68
2023/06/23 04:47:46;;;;;;;15.18;13.60;;;;;;;19.35;87.59;95250.59;5117902;28;20184;-68
2023/06/23 04:50:15;;;;;;;15.50;13.90;;;;;;;19.13;88.11;95254.69;5116910;28;20251;-68
2023/06/23 04:52:48;;;;;;;16.48;15.05;;;;;;;18.97;88.90;95247.53;5117882;28;20206;-68
2023/06/23 04:55:19;;;;;;;16.92;14.98;;;;;;;18.90;89.68;95253.16;5116666;28;20223;-68
2023/06/23 04:57:49;;;;;;;16.02;14.57;;;;;;;18.87;90.23;95253.94;5116867;28;20294;-68
2023/06/23 05:00:21;;;;;;;16.00;14.32;;;;;;;18.87;90.42;95250.34;5117880;28;20264;-68
2023/06/23 05:02:50;;;;;;;18.50;15.43;;;;;;;18.89;90.88;95256.34;5117611;28;20183;-68
2023/06/23 05:05:22;;;;;;;16.90;15.30;;;;;;;18.91;91.16;95253.94;5116380;28;20196;-68
2023/06/23 05:07:52;;;;;;;28.40;25.73;;;;;;;18.94;91.50;95258.72;5117189;28;20249;-68
2023/06/23 05:10:20;;;;;;;33.65;30.48;;;;;;;18.98;91.45;95263.09;5116650;28;20219;-68
2023/06/23 05:12:50;;;;;;;28.38;25.77;;;;;;;19.05;91.40;95259.50;5116804;28;20646;-68
2023/06/23 05:15:20;;;;;;;24.70;22.40;;;;;;;19.09;91.43;95259.50;5116188;28;20188;-68
2023/06/23 05:17:49;;;;;;;21.90;19.70;;;;;;;19.13;91.33;95269.47;5116377;28;20196;-68
2023/06/23 05:20:20;;;;;;;20.85;18.85;;;;;;;19.16;91.40;95260.25;5116309;28;20199;-68
2023/06/23 05:22:51;;;;;;;20.45;18.45;;;;;;;19.20;90.79;95263.06;5116232;28;20627;-68
2023/06/23 05:25:23;;;;;;;19.08;17.17;;;;;;;19.25;90.48;95268.25;5116351;28;20196;-68
2023/06/23 05:27:57;;;;;;;19.23;17.23;;;;;;;19.29;89.84;95271.03;5116758;28;20511;-68
2023/06/23 05:30:26;;;;;;;18.48;16.60;;;;;;;19.34;89.37;95271.41;5116440;28;20202;-68
2023/06/23 05:32:53;;;;;;;18.42;16.52;;;;;;;19.37;88.99;95273.38;5116286;28;20203;-68
2023/06/23 05:35:22;;;;;;;17.88;16.05;;;;;;;19.39;88.90;95279.38;5116646;28;20180;-68
2023/06/23 05:37:53;;;;;;;18.60;16.77;;;;;;;19.42;88.11;95281.34;5116955;28;20202;-68
2023/06/23 05:40:20;;;;;;;19.58;17.52;;;;;;;19.48;88.13;95279.75;5115882;28;20203;-68
2023/06/23 05:42:48;;;;;;;18.92;16.88;;;;;;;19.54;87.73;95282.13;5116553;28;20682;-68
2023/06/23 05:45:16;;;;;;;19.23;17.38;;;;;;;19.58;87.13;95280.91;5115883;28;20202;-68
2023/06/23 05:47:49;;;;;;;19.80;17.83;;;;;;;19.60;87.55;95281.28;5116658;28;20203;-68
2023/06/23 05:50:21;;;;;;;20.25;18.33;;;;;;;19.67;87.07;95286.09;5116643;28;20180;-68
2023/06/23 05:53:07;;;;;;;19.50;17.13;;;;;;;19.70;86.93;95285.28;5115423;28;20187;-68
2023/06/23 05:55:36;;;;;;;20.15;18.10;;;;;;;19.77;86.79;95282.44;5116526;28;20184;-68
2023/06/23 05:58:08;;;;;;;19.58;17.58;;;;;;;19.78;85.97;95286.81;5115398;28;20196;-68
2023/06/23 06:00:41;;;;;;;21.58;19.25;;;;;;;19.80;86.77;95290.03;5115730;28;20211;-68
2023/06/23 06:03:12;;;;;;;20.48;18.48;;;;;;;19.82;86.32;95286.81;5115175;28;20206;-68
2023/06/23 06:05:40;;;;;;;19.80;17.85;;;;;;;19.85;86.39;95286.00;5115437;28;20203;-68
2023/06/23 06:08:10;;;;;;;20.08;17.80;;;;;;;19.91;85.94;95290.75;5116695;28;20252;-68
2023/06/23 06:10:39;;;;;;;19.25;17.45;;;;;;;19.96;85.87;95286.72;5115557;28;20256;-68
2023/06/23 06:13:07;;;;;;;21.35;19.05;;;;;;;20.01;85.71;95283.53;5115253;28;20583;-69
2023/06/23 06:15:35;;;;;;;18.52;16.77;;;;;;;20.05;86.23;95283.50;5116202;28;20326;-68
2023/06/23 06:18:06;;;;;;;20.63;18.42;;;;;;;20.08;86.00;95282.66;5116002;28;20627;-68
2023/06/23 06:20:36;;;;;;;20.70;18.50;;;;;;;20.10;85.93;95281.06;5114817;28;20203;-68
2023/06/23 06:23:04;;;;;;;21.63;19.42;;;;;;;20.13;86.12;95280.25;5116180;28;20215;-68
2023/06/23 06:25:35;;;;;;;21.55;19.05;;;;;;;20.16;85.99;95273.81;5116031;28;20188;-68
2023/06/23 06:28:05;;;;;;;19.45;17.45;;;;;;;20.22;86.50;95282.56;5115720;28;20223;-68
2023/06/23 06:30:33;;;;;;;19.98;17.80;;;;;;;20.24;86.03;95271.78;5115676;28;20180;-68
2023/06/23 06:33:02;;;;;;;19.92;17.95;;;;;;;20.29;86.19;95264.94;5116134;28;20249;-68
2023/06/23 06:35:32;;;;;;;22.10;19.65;;;;;;;20.32;85.78;95264.91;5114946;28;20195;-68
2023/06/23 06:38:00;;;;;;;21.98;19.30;;;;;;;20.39;85.58;95261.25;5115206;28;20199;-68
2023/06/23 06:40:28;;;;;;;21.20;19.05;;;;;;;20.44;85.17;95258.81;5115875;28;20184;-68
2023/06/23 06:43:00;;;;;;;23.27;20.88;;;;;;;20.48;84.91;95256.00;5115435;28;20239;-68
2023/06/23 06:45:28;;;;;;;19.30;17.40;;;;;;;20.52;84.78;95258.81;5114469;28;20209;-68
2023/06/23 06:47:58;;;;;;;25.38;20.20;;;;;;;20.57;84.48;95261.16;5114755;28;20207;-74
2023/06/23 06:50:26;;;;;;;23.05;20.75;;;;;;;20.61;84.54;95245.09;5114598;28;20195;-67
2023/06/23 06:52:53;;;;;;;23.10;20.70;;;;;;;20.64;84.87;95244.28;5114766;28;20251;-68
2023/06/23 06:55:22;;;;;;;23.05;20.75;;;;;;;20.63;84.59;95240.69;5115608;28;20187;-68
2023/06/23 06:57:51;;;;;;;21.45;19.45;;;;;;;20.65;83.89;95241.03;5114789;28;20196;-68
2023/06/23 07:00:25;;;;;;;22.20;19.90;;;;;;;20.67;83.69;95227.44;5114744;28;20252;-68
2023/06/23 07:02:54;;;;;;;21.83;19.52;;;;;;;20.71;83.39;95227.41;5114796;28;20206;-69
2023/06/23 07:05:22;;;;;;;25.80;20.35;;;;;;;20.74;83.05;95225.78;5114682;28;20188;-68
2023/06/23 07:07:51;;;;;;;23.75;19.27;;;;;;;20.77;83.04;95224.91;5115607;28;20202;-69
2023/06/23 07:10:21;;;;;;;21.88;19.58;;;;;;;20.80;83.23;95218.50;5115505;28;20184;-69
2023/06/23 07:12:50;;;;;;;23.10;20.77;;;;;;;20.90;82.33;95220.41;5114792;28;20208;-69
2023/06/23 07:15:20;;;;;;;23.40;21.17;;;;;;;20.93;82.24;95219.56;5115775;28;20206;-69
2023/06/23 07:17:49;;;;;;;21.30;19.17;;;;;;;20.94;81.44;95211.94;5115478;28;20282;-69
2023/06/23 07:20:17;;;;;;;20.88;18.90;;;;;;;21.00;81.10;95221.50;5115504;28;20199;-69
2023/06/23 07:22:44;;;;;;;21.83;19.52;;;;;;;21.01;80.69;95207.06;5114711;28;20203;-69
2023/06/23 07:25:13;;;;;;;21.58;19.42;;;;;;;21.03;80.29;95212.25;5115450;28;20241;-69
2023/06/23 07:27:41;;;;;;;20.25;18.20;;;;;;;21.04;79.81;95211.03;5114354;28;20196;-69
2023/06/23 07:30:09;;;;;;;21.35;19.17;;;;;;;21.10;80.93;95209.38;5115125;28;20199;-68
2023/06/23 07:32:37;;;;;;;21.58;19.33;;;;;;;21.19;80.11;95211.66;5119340;28;20210;-68
2023/06/23 07:35:07;;;;;;;20.85;18.85;;;;;;;21.30;81.47;95210.31;5119332;28;20180;-68
2023/06/23 07:37:35;;;;;;;21.00;18.80;;;;;;;21.36;79.80;95210.69;5117982;28;20269;-68
2023/06/23 07:40:03;;;;;;;21.58;19.30;;;;;;;21.44;79.55;95214.22;5119643;28;20253;-68
2023/06/23 07:42:30;;;;;;;21.85;19.63;;;;;;;21.44;78.47;95211.41;5118848;28;20192;-68
2023/06/23 07:44:57;;;;;;;21.92;19.63;;;;;;;21.43;77.89;95210.63;5118618;28;20517;-68
2023/06/23 07:47:25;;;;;;;20.88;18.75;;;;;;;21.45;78.96;95202.56;5118994;28;20196;-68
2023/06/23 07:49:53;;;;;;;20.88;18.70;;;;;;;21.56;79.29;95214.44;5118137;28;20219;-68
2023/06/23 07:52:23;;;;;;;20.38;18.33;;;;;;;21.66;76.98;95211.91;5117992;28;20216;-68
2023/06/23 07:54:52;;;;;;;19.60;17.70;;;;;;;21.68;77.02;95209.47;5118121;28;20200;-68
2023/06/23 07:57:19;;;;;;;20.77;18.88;;;;;;;21.70;76.83;95213.47;5117706;28;20550;-68
2023/06/23 07:59:48;;;;;;;21.10;18.95;;;;;;;21.71;74.80;95212.22;5117946;28;20592;-68
2023/06/23 08:02:15;;;;;;;19.10;17.10;;;;;;;21.72;75.62;95207.44;5118573;28;20230;-68
2023/06/23 08:04:42;;;;;;;20.48;18.23;;;;;;;21.74;76.73;95204.97;5118687;28;20199;-68
2023/06/23 08:07:10;;;;;;;19.85;17.73;;;;;;;21.76;76.39;95203.34;5117714;28;20210;-68
2023/06/23 08:09:42;;;;;;;19.92;17.85;;;;;;;21.80;76.94;95208.91;5117353;28;20200;-68
2023/06/23 08:12:10;;;;;;;20.30;18.20;;;;;;;21.88;77.53;95210.41;5117324;28;20216;-68
2023/06/23 08:14:38;;;;;;;22.00;19.80;;;;;;;;;;5117647;28;20199;-68
2023/06/23 08:17:06;;;;;;;20.73;18.83;;;;;;;22.16;77.15;95202.81;5117684;28;20191;-68
2023/06/23 08:19:37;;;;;;;21.00;18.95;;;;;;;22.27;77.02;95203.44;5117555;28;20188;-68
2023/06/23 08:22:06;;;;;;;21.63;18.75;;;;;;;22.31;76.46;95201.34;5118679;28;20172;-68
2023/06/23 08:24:34;;;;;;;20.65;18.63;;;;;;;22.34;77.08;95201.31;5117298;28;20573;-68
2023/06/23 08:27:04;;;;;;;20.23;18.05;;;;;;;22.46;75.86;95202.72;5117551;28;20199;-68
2023/06/23 08:29:32;;;;;;;21.73;18.48;;;;;;;22.59;76.36;95194.47;5116408;28;20204;-68
2023/06/23 08:32:00;;;;;;;21.25;19.15;;;;;;;22.65;76.27;95194.75;5118103;28;20210;-68
2023/06/23 08:34:28;;;;;;;20.63;18.52;;;;;;;22.75;74.10;95200.19;5118092;28;20269;-68
2023/06/23 08:36:56;;;;;;;20.25;18.15;;;;;;;22.83;72.41;95195.22;5118115;28;20192;-68
2023/06/23 08:39:24;;;;;;;20.30;18.17;;;;;;;22.91;72.82;95190.28;5118014;28;20217;-67
2023/06/23 08:41:54;;;;;;;21.67;16.58;;;;;;;22.91;73.15;95191.06;5117234;28;20184;-68
2023/06/23 08:44:25;;;;;;;18.08;16.20;;;;;;;22.93;73.48;95199.91;5117450;28;20246;-68
2023/06/23 08:46:58;;;;;;;16.63;15.05;;;;;;;22.99;73.22;95184.13;5117257;28;20203;-68
2023/06/23 08:49:28;;;;;;;17.98;16.13;;;;;;;23.06;70.01;95188.81;5117940;28;20253;-68
2023/06/23 08:51:56;;;;;;;17.05;15.45;;;;;;;23.12;70.09;95183.47;5116827;28;20265;-68
2023/06/23 08:54:24;;;;;;;16.33;14.32;;;;;;;23.18;70.27;95176.94;5117504;28;20203;-68
2023/06/23 08:56:52;;;;;;;16.08;14.38;;;;;;;23.22;69.87;95180.47;5117548;28;20229;-68
2023/06/23 08:59:21;;;;;;;16.42;14.73;;;;;;;23.24;70.81;95178.00;5116401;28;20202;-68
2023/06/23 09:01:51;;;;;;;20.05;18.25;;;;;;;23.38;73.27;95176.13;5116440;28;20192;-68
2023/06/23 09:04:20;;;;;;;16.95;15.13;;;;;;;23.59;70.13;95172.84;5117595;28;20227;-68
2023/06/23 09:06:47;;;;;;;17.13;15.35;;;;;;;23.84;71.12;95169.53;5117446;28;20211;-68
2023/06/23 09:09:15;;;;;;;16.40;14.50;;;;;;;23.99;70.91;95176.41;5116563;28;20206;-68
2023/06/23 09:11:43;;;;;;;15.57;14.07;;;;;;;24.29;68.12;95166.03;5116390;28;20223;-68
2023/06/23 09:14:12;;;;;;;16.52;14.93;;;;;;;24.49;64.85;95161.13;5117399;28;20195;-68
2023/06/23 09:16:41;;;;;;;15.48;13.88;;;;;;;24.58;66.92;95157.69;5117157;28;20195;-68
2023/06/23 09:19:10;;;;;;;16.67;14.52;;;;;;;24.67;69.70;95159.91;5117409;28;20184;-68
2023/06/23 09:21:41;;;;;;;15.80;14.20;;;;;;;24.77;69.26;95158.81;5116091;28;20310;-68
2023/06/23 09:24:09;;;;;;;14.82;13.20;;;;;;;24.82;66.68;95158.28;5117401;28;20195;-68
2023/06/23 09:26:49;;;;;;;16.48;14.77;;;;;;;24.90;67.63;95153.22;5116316;28;20200;-68
2023/06/23 09:29:18;;;;;;;15.32;12.98;;;;;;;25.07;68.49;95151.16;5116231;28;20214;-68
2023/06/23 09:31:47;;;;;;;14.20;12.88;;;;;;;25.13;64.98;95158.69;5117005;28;20215;-68
2023/06/23 09:34:23;;;;;;;13.43;12.13;;;;;;;25.16;61.89;95145.69;5116685;28;20290;-68
2023/06/23 09:36:52;;;;;;;13.68;12.43;;;;;;;25.27;60.64;95153.84;5116196;28;20195;-68
2023/06/23 09:39:22;;;;;;;13.20;11.88;;;;;;;25.37;61.48;95153.53;5116521;28;20256;-68
2023/06/23 09:41:55;;;;;;;14.35;12.95;;;;;;;25.43;61.99;95153.78;5116712;28;20200;-69
2023/06/23 09:44:32;;;;;;;13.43;11.98;;;;;;;25.60;60.34;95152.47;5115355;28;20239;-68
2023/06/23 09:47:03;;;;;;;13.95;12.00;;;;;;;25.74;58.33;95151.25;5115630;28;20206;-68
2023/06/23 09:49:40;;;;;;;13.85;12.38;;;;;;;25.88;58.27;95156.47;5115657;28;20195;-67
2023/06/23 09:52:10;;;;;;;13.25;11.95;;;;;;;25.85;59.20;95146.06;5115995;28;20207;-70
2023/06/23 09:54:41;;;;;;;12.48;11.27;;;;;;;25.83;59.14;95147.78;5115353;28;20203;-68
2023/06/23 09:57:13;;;;;;;12.60;11.30;;;;;;;25.96;60.15;95145.75;5115748;28;20199;-68
2023/06/23 09:59:42;;;;;;;12.18;11.07;;;;;;;26.14;61.27;95148.00;5116454;28;20188;-68
2023/06/23 10:02:22;;;;;;;12.18;10.90;;;;;;;26.19;59.40;95147.47;5116123;28;20202;-68
2023/06/23 10:04:51;;;;;;;12.60;11.20;;;;;;;26.29;56.38;95146.31;5116590;28;20256;-68
2023/06/23 10:07:21;;;;;;;11.25;10.15;;;;;;;26.36;57.84;95139.63;5115522;28;20184;-68
2023/06/23 10:09:53;;;;;;;12.50;11.15;;;;;;;26.45;58.96;95131.25;5115414;28;20203;-68
2023/06/23 10:12:23;;;;;;;12.73;11.43;;;;;;;26.56;57.95;95128.09;5115665;28;20211;-68
2023/06/23 10:14:51;;;;;;;13.15;11.77;;;;;;;26.59;57.22;95132.84;5115742;28;20225;-68
2023/06/23 10:17:18;;;;;;;13.45;12.15;;;;;;;26.62;57.64;95123.44;5115149;28;20203;-68
2023/06/23 10:19:47;;;;;;;13.60;12.20;;;;;;;26.73;58.06;95126.69;5115201;28;20195;-68
2023/06/23 10:22:18;;;;;;;12.65;11.45;;;;;;;26.71;55.28;95114.25;5115800;28;20530;-68
2023/06/23 10:24:48;;;;;;;12.90;11.55;;;;;;;26.64;56.64;95118.88;5116017;28;20217;-68
2023/06/23 10:27:17;;;;;;;13.43;12.02;;;;;;;26.74;56.12;95121.81;5115367;28;20204;-68
2023/06/23 10:29:49;;;;;;;12.73;11.20;;;;;;;26.71;53.37;95117.84;5115077;28;20202;-68
2023/06/23 10:32:17;;;;;;;12.77;11.48;;;;;;;26.75;56.43;95112.84;5115625;28;20218;-68
2023/06/23 10:34:45;;;;;;;11.65;10.50;;;;;;;26.87;56.37;95114.06;5115405;28;20203;-68
2023/06/23 10:37:22;;;;;;;11.50;10.35;;;;;;;27.01;52.45;95115.59;5115018;28;20191;-68
2023/06/23 10:39:52;;;;;;;12.05;10.85;;;;;;;27.09;53.30;95116.94;5115852;28;20171;-68
2023/06/23 10:42:23;;;;;;;11.05;10.05;;;;;;;27.16;51.41;95111.00;5115818;28;20187;-68
2023/06/23 10:44:51;;;;;;;11.20;10.20;;;;;;;27.23;54.69;95107.91;5115386;28;20239;-68
2023/06/23 10:47:20;;;;;;;10.90;9.73;;;;;;;27.26;51.82;95103.38;5115834;28;20192;-68
2023/06/23 10:49:48;;;;;;;10.73;9.73;;;;;;;27.27;50.45;95097.28;5115761;28;20199;-68
2023/06/23 10:52:21;;;;;;;12.25;9.82;;;;;;;27.33;49.65;95095.41;5114784;28;20215;-68
2023/06/23 10:54:49;;;;;;;10.80;9.70;;;;;;;27.39;51.92;95089.94;5115773;28;20176;-68
2023/06/23 10:57:17;;;;;;;10.27;9.38;;;;;;;27.42;49.16;95085.41;5115532;28;20192;-68
2023/06/23 11:00:04;;;;;;;10.93;9.93;;;;;;;27.46;50.76;95080.41;5114752;28;20206;-68
2023/06/23 11:02:52;;;;;;;10.50;9.50;;;;;;;27.54;48.90;95081.69;5114812;28;20188;-68
2023/06/23 11:05:22;;;;;;;11.50;10.40;;;;;;;27.60;53.94;95080.63;5115288;28;20581;-68
2023/06/23 11:08:09;;;;;;;11.07;9.98;;;;;;;27.75;51.21;95075.22;5119933;28;20194;-68
2023/06/23 11:10:51;;;;;;;12.73;10.20;;;;;;;27.78;49.66;95070.69;5117410;28;20215;-68
2023/06/23 11:13:19;;;;;;;10.50;9.45;;;;;;;27.80;50.00;95071.00;5119598;28;20222;-68
2023/06/23 11:15:54;;;;;;;11.07;9.85;;;;;;;27.84;49.73;95063.91;5118806;28;20195;-68
2023/06/23 11:18:24;;;;;;;11.88;10.85;;;;;;;27.93;52.99;95053.88;5119654;28;20175;-68
2023/06/23 11:20:51;;;;;;;13.23;10.32;;;;;;;28.02;51.82;95056.75;5119621;28;20219;-68
2023/06/23 11:23:21;;;;;;;11.80;10.38;;;;;;;28.05;49.74;95055.81;5119341;28;20249;-68
2023/06/23 11:25:51;;;;;;;10.85;9.77;;;;;;;28.10;53.11;95051.56;5118405;28;20199;-68
2023/06/23 11:28:29;;;;;;;10.80;9.80;;;;;;;28.12;53.16;95049.84;5119631;28;20183;-68
2023/06/23 11:31:06;;;;;;;10.90;9.95;;;;;;;28.12;49.86;95049.06;5118520;28;20196;-68
2023/06/23 11:33:37;;;;;;;11.07;9.95;;;;;;;28.10;49.93;95049.50;5118038;28;20215;-68